map of YMH home
YMH - Airport
Location
City:  Mary's Harbour, Newfoundland and Labrador, Canada
ICAO:CYMH
IATA:YMH

Details
Type:Airport (Airfield)
Latitude:5218'10"N (52.302833)
Longitude:5550'50"W (-55.847166)
Elevation:34 ft (10 m)
Variation:19.87W (WMM2015v2 magnetic declination)
0.23 annual change
Runways:1
Longest:2500 × 75 ft (762 × 23 m)

Time
Time Zone:UTC-3:30 (DST-2:30)
Local Time:

Weather
METAR:CYMH 041400Z AUTO 27006KT 9SM SCT110 SCT130 M12/M19 A2991 RMK SLP132
TAF:CYMH 041341Z 0414/0502 23008KT P6SM SCT130 BKN160
FM041700 24008KT 6SM -SN SCT020 OVC050
TEMPO 0417/0422 21/2SM -SN BKN020 OVC050
FM042200 25006KT P6SM BKN050
RMK FCST BASED ON AUTO OBS. NXT FCST BY 042000Z

Related Locations
Nearby:
Farthest:YWKS: 11344 mi / 18257 km
Wilkins Runway (Casey), Upper Peterson Glacier, AQ

Find:

   beyond  
but within

Other Information
Maps:
NOTAMs:
Links:
Sources:

  
  • flag of Canada
  • flag of Newfoundland and Labrador
  

Airport Diagram

Airport diagram for YMH

Airport diagram PDF

Sectional Chart

Flight Planning
at skyvector.com

Satellite Image

Google Maps Satellite view

 

Copyright © 2004-2019 Karl L. Swartz. All rights reserved.
The Great Circle Mapper name and logo are trademarks of the Great Circle Mapper.
All other trademarks mentioned herein belong to their respective owners.
Please see credits for attibutions and further copyright information.

  Follow gcmap on Facebook Follow gcmap on Twitter GCmap on LinkedIn

hCard Microformat

Geo Microformat